sensor_id;sensor_type;location;lat;lon;timestamp;P1;durP1;ratioP1;P2;durP2;ratioP2
20441;SDS011;10380;52.102;20.614;2022-10-16T00:01:15;13.57;;;9.17;;
20441;SDS011;10380;52.102;20.614;2022-10-16T00:03:46;13.30;;;8.00;;
20441;SDS011;10380;52.102;20.614;2022-10-16T00:06:15;14.80;;;9.27;;
20441;SDS011;10380;52.102;20.614;2022-10-16T00:08:44;16.13;;;9.00;;
20441;SDS011;10380;52.102;20.614;2022-10-16T00:11:12;12.80;;;9.20;;
20441;SDS011;10380;52.102;20.614;2022-10-16T00:13:42;10.02;;;7.85;;
20441;SDS011;10380;52.102;20.614;2022-10-16T00:16:10;16.40;;;9.13;;
20441;SDS011;10380;52.102;20.614;2022-10-16T00:18:39;15.20;;;8.52;;
20441;SDS011;10380;52.102;20.614;2022-10-16T00:21:10;14.60;;;9.07;;
20441;SDS011;10380;52.102;20.614;2022-10-16T00:23:40;9.75;;;7.40;;
20441;SDS011;10380;52.102;20.614;2022-10-16T00:26:10;13.70;;;9.43;;
20441;SDS011;10380;52.102;20.614;2022-10-16T00:28:39;13.65;;;8.80;;
20441;SDS011;10380;52.102;20.614;2022-10-16T00:31:10;11.73;;;9.10;;
20441;SDS011;10380;52.102;20.614;2022-10-16T00:33:38;13.07;;;8.70;;
20441;SDS011;10380;52.102;20.614;2022-10-16T00:36:07;15.57;;;8.80;;
20441;SDS011;10380;52.102;20.614;2022-10-16T00:38:35;16.90;;;9.37;;
20441;SDS011;10380;52.102;20.614;2022-10-16T00:41:04;16.40;;;9.70;;
20441;SDS011;10380;52.102;20.614;2022-10-16T00:51:23;15.53;;;10.07;;
20441;SDS011;10380;52.102;20.614;2022-10-16T00:53:56;14.97;;;8.93;;
20441;SDS011;10380;52.102;20.614;2022-10-16T00:56:24;14.63;;;8.43;;
20441;SDS011;10380;52.102;20.614;2022-10-16T00:58:51;14.77;;;10.48;;
20441;SDS011;10380;52.102;20.614;2022-10-16T01:01:18;13.27;;;9.05;;
20441;SDS011;10380;52.102;20.614;2022-10-16T01:03:45;14.13;;;9.67;;
20441;SDS011;10380;52.102;20.614;2022-10-16T01:09:04;13.80;;;9.63;;
20441;SDS011;10380;52.102;20.614;2022-10-16T01:11:53;13.33;;;9.73;;
20441;SDS011;10380;52.102;20.614;2022-10-16T01:18:10;13.57;;;10.20;;
20441;SDS011;10380;52.102;20.614;2022-10-16T01:20:18;14.43;;;11.00;;
20441;SDS011;10380;52.102;20.614;2022-10-16T01:25:30;16.57;;;11.37;;
20441;SDS011;10380;52.102;20.614;2022-10-16T01:28:14;17.63;;;11.23;;
20441;SDS011;10380;52.102;20.614;2022-10-16T01:30:43;17.83;;;11.93;;
20441;SDS011;10380;52.102;20.614;2022-10-16T01:33:27;14.67;;;10.17;;
20441;SDS011;10380;52.102;20.614;2022-10-16T01:36:16;19.57;;;11.47;;
20441;SDS011;10380;52.102;20.614;2022-10-16T01:38:48;15.80;;;10.60;;
20441;SDS011;10380;52.102;20.614;2022-10-16T01:41:21;19.17;;;11.87;;
20441;SDS011;10380;52.102;20.614;2022-10-16T01:43:54;18.98;;;12.60;;
20441;SDS011;10380;52.102;20.614;2022-10-16T01:46:36;17.77;;;11.53;;
20441;SDS011;10380;52.102;20.614;2022-10-16T01:49:06;17.63;;;11.17;;
20441;SDS011;10380;52.102;20.614;2022-10-16T01:51:36;16.97;;;11.93;;
20441;SDS011;10380;52.102;20.614;2022-10-16T01:54:04;19.60;;;11.60;;
20441;SDS011;10380;52.102;20.614;2022-10-16T01:56:34;18.90;;;11.87;;
20441;SDS011;10380;52.102;20.614;2022-10-16T01:59:16;20.13;;;12.97;;
20441;SDS011;10380;52.102;20.614;2022-10-16T02:01:48;17.80;;;12.70;;
20441;SDS011;10380;52.102;20.614;2022-10-16T02:04:23;16.77;;;12.10;;
20441;SDS011;10380;52.102;20.614;2022-10-16T02:06:54;19.80;;;12.50;;
20441;SDS011;10380;52.102;20.614;2022-10-16T02:09:21;16.58;;;11.75;;
20441;SDS011;10380;52.102;20.614;2022-10-16T02:11:48;18.27;;;12.57;;
20441;SDS011;10380;52.102;20.614;2022-10-16T02:14:19;17.30;;;12.53;;
20441;SDS011;10380;52.102;20.614;2022-10-16T02:16:48;16.70;;;12.20;;
20441;SDS011;10380;52.102;20.614;2022-10-16T02:19:15;16.00;;;12.73;;
20441;SDS011;10380;52.102;20.614;2022-10-16T02:21:50;19.23;;;11.77;;
20441;SDS011;10380;52.102;20.614;2022-10-16T02:25:06;16.03;;;11.70;;
20441;SDS011;10380;52.102;20.614;2022-10-16T02:28:03;16.93;;;10.90;;
20441;SDS011;10380;52.102;20.614;2022-10-16T02:32:49;17.10;;;11.73;;
20441;SDS011;10380;52.102;20.614;2022-10-16T02:35:18;16.47;;;12.07;;
20441;SDS011;10380;52.102;20.614;2022-10-16T02:37:47;17.70;;;12.03;;
20441;SDS011;10380;52.102;20.614;2022-10-16T02:40:16;19.63;;;12.67;;
20441;SDS011;10380;52.102;20.614;2022-10-16T02:42:50;20.17;;;12.27;;
20441;SDS011;10380;52.102;20.614;2022-10-16T02:45:19;18.98;;;13.10;;
20441;SDS011;10380;52.102;20.614;2022-10-16T02:47:46;17.75;;;11.75;;
20441;SDS011;10380;52.102;20.614;2022-10-16T02:50:13;15.48;;;11.82;;
20441;SDS011;10380;52.102;20.614;2022-10-16T02:52:40;18.87;;;11.30;;
20441;SDS011;10380;52.102;20.614;2022-10-16T02:55:08;16.07;;;12.20;;
20441;SDS011;10380;52.102;20.614;2022-10-16T02:57:35;16.40;;;12.27;;
20441;SDS011;10380;52.102;20.614;2022-10-16T03:00:04;17.75;;;12.20;;
20441;SDS011;10380;52.102;20.614;2022-10-16T03:02:31;15.43;;;11.82;;
20441;SDS011;10380;52.102;20.614;2022-10-16T03:04:58;15.77;;;11.63;;
20441;SDS011;10380;52.102;20.614;2022-10-16T03:07:25;20.03;;;12.33;;
20441;SDS011;10380;52.102;20.614;2022-10-16T03:09:53;18.10;;;11.57;;
20441;SDS011;10380;52.102;20.614;2022-10-16T03:12:21;16.92;;;11.40;;
20441;SDS011;10380;52.102;20.614;2022-10-16T03:14:48;18.17;;;12.63;;
20441;SDS011;10380;52.102;20.614;2022-10-16T03:17:15;18.27;;;12.33;;
20441;SDS011;10380;52.102;20.614;2022-10-16T03:19:43;18.67;;;12.13;;
20441;SDS011;10380;52.102;20.614;2022-10-16T03:22:10;17.40;;;12.23;;
20441;SDS011;10380;52.102;20.614;2022-10-16T03:24:37;16.55;;;12.77;;
20441;SDS011;10380;52.102;20.614;2022-10-16T03:27:04;18.97;;;12.03;;
20441;SDS011;10380;52.102;20.614;2022-10-16T03:29:31;19.30;;;12.13;;
20441;SDS011;10380;52.102;20.614;2022-10-16T03:31:59;18.53;;;11.47;;
20441;SDS011;10380;52.102;20.614;2022-10-16T03:34:27;16.97;;;11.33;;
20441;SDS011;10380;52.102;20.614;2022-10-16T03:36:54;17.80;;;12.20;;
20441;SDS011;10380;52.102;20.614;2022-10-16T03:39:21;16.90;;;12.37;;
20441;SDS011;10380;52.102;20.614;2022-10-16T03:41:49;15.83;;;12.40;;
20441;SDS011;10380;52.102;20.614;2022-10-16T03:44:16;15.77;;;11.53;;
20441;SDS011;10380;52.102;20.614;2022-10-16T03:46:43;19.03;;;12.90;;
20441;SDS011;10380;52.102;20.614;2022-10-16T03:49:10;16.53;;;13.33;;
20441;SDS011;10380;52.102;20.614;2022-10-16T03:51:37;18.37;;;12.03;;
20441;SDS011;10380;52.102;20.614;2022-10-16T03:54:04;22.27;;;12.43;;
20441;SDS011;10380;52.102;20.614;2022-10-16T03:56:31;18.67;;;11.40;;
20441;SDS011;10380;52.102;20.614;2022-10-16T03:58:58;16.43;;;11.93;;
20441;SDS011;10380;52.102;20.614;2022-10-16T04:01:25;20.43;;;11.47;;
20441;SDS011;10380;52.102;20.614;2022-10-16T04:03:53;17.73;;;12.20;;
20441;SDS011;10380;52.102;20.614;2022-10-16T04:06:19;18.77;;;11.90;;
20441;SDS011;10380;52.102;20.614;2022-10-16T04:08:47;18.23;;;12.73;;
20441;SDS011;10380;52.102;20.614;2022-10-16T04:11:14;20.70;;;12.00;;
20441;SDS011;10380;52.102;20.614;2022-10-16T04:13:41;17.77;;;12.97;;
20441;SDS011;10380;52.102;20.614;2022-10-16T04:16:09;21.60;;;12.53;;
20441;SDS011;10380;52.102;20.614;2022-10-16T04:18:36;20.13;;;13.13;;
20441;SDS011;10380;52.102;20.614;2022-10-16T04:21:04;18.20;;;11.53;;
20441;SDS011;10380;52.102;20.614;2022-10-16T04:23:32;16.67;;;12.30;;
20441;SDS011;10380;52.102;20.614;2022-10-16T04:25:59;18.27;;;12.60;;
20441;SDS011;10380;52.102;20.614;2022-10-16T04:28:27;18.73;;;13.53;;
20441;SDS011;10380;52.102;20.614;2022-10-16T04:30:54;18.23;;;12.23;;
20441;SDS011;10380;52.102;20.614;2022-10-16T04:33:21;18.30;;;12.33;;
20441;SDS011;10380;52.102;20.614;2022-10-16T04:35:48;18.13;;;13.10;;
20441;SDS011;10380;52.102;20.614;2022-10-16T04:38:23;15.57;;;12.30;;
20441;SDS011;10380;52.102;20.614;2022-10-16T04:40:50;17.90;;;13.30;;
20441;SDS011;10380;52.102;20.614;2022-10-16T04:43:17;17.33;;;12.47;;
20441;SDS011;10380;52.102;20.614;2022-10-16T04:45:44;20.97;;;13.97;;
20441;SDS011;10380;52.102;20.614;2022-10-16T04:48:11;20.50;;;12.90;;
20441;SDS011;10380;52.102;20.614;2022-10-16T04:50:38;17.40;;;11.87;;
20441;SDS011;10380;52.102;20.614;2022-10-16T04:53:05;19.97;;;12.97;;
20441;SDS011;10380;52.102;20.614;2022-10-16T04:55:33;18.53;;;12.43;;
20441;SDS011;10380;52.102;20.614;2022-10-16T04:58:01;17.40;;;12.83;;
20441;SDS011;10380;52.102;20.614;2022-10-16T05:00:28;16.47;;;12.40;;
20441;SDS011;10380;52.102;20.614;2022-10-16T05:02:55;18.77;;;13.37;;
20441;SDS011;10380;52.102;20.614;2022-10-16T05:05:23;20.77;;;13.40;;
20441;SDS011;10380;52.102;20.614;2022-10-16T05:07:51;17.03;;;12.83;;
20441;SDS011;10380;52.102;20.614;2022-10-16T05:10:18;18.70;;;12.60;;
20441;SDS011;10380;52.102;20.614;2022-10-16T05:12:46;17.80;;;12.50;;
20441;SDS011;10380;52.102;20.614;2022-10-16T05:15:13;16.30;;;12.87;;
20441;SDS011;10380;52.102;20.614;2022-10-16T05:17:40;16.93;;;12.47;;
20441;SDS011;10380;52.102;20.614;2022-10-16T05:20:10;20.00;;;13.57;;
20441;SDS011;10380;52.102;20.614;2022-10-16T05:22:38;17.87;;;12.53;;
20441;SDS011;10380;52.102;20.614;2022-10-16T05:25:05;24.50;;;12.80;;
20441;SDS011;10380;52.102;20.614;2022-10-16T05:27:32;16.23;;;12.37;;
20441;SDS011;10380;52.102;20.614;2022-10-16T05:30:00;21.30;;;12.60;;
20441;SDS011;10380;52.102;20.614;2022-10-16T05:32:28;19.63;;;13.50;;
20441;SDS011;10380;52.102;20.614;2022-10-16T05:34:54;18.90;;;13.70;;
20441;SDS011;10380;52.102;20.614;2022-10-16T05:37:22;18.70;;;13.93;;
20441;SDS011;10380;52.102;20.614;2022-10-16T05:39:49;16.97;;;13.40;;
20441;SDS011;10380;52.102;20.614;2022-10-16T05:42:16;19.17;;;12.53;;
20441;SDS011;10380;52.102;20.614;2022-10-16T05:44:43;19.40;;;12.40;;
20441;SDS011;10380;52.102;20.614;2022-10-16T05:47:12;19.27;;;11.83;;
20441;SDS011;10380;52.102;20.614;2022-10-16T05:49:40;17.90;;;12.83;;
20441;SDS011;10380;52.102;20.614;2022-10-16T05:52:07;17.97;;;13.20;;
20441;SDS011;10380;52.102;20.614;2022-10-16T05:54:34;17.07;;;12.67;;
20441;SDS011;10380;52.102;20.614;2022-10-16T05:57:01;16.87;;;12.33;;
20441;SDS011;10380;52.102;20.614;2022-10-16T05:59:28;19.10;;;13.33;;
20441;SDS011;10380;52.102;20.614;2022-10-16T06:01:55;21.03;;;12.80;;
20441;SDS011;10380;52.102;20.614;2022-10-16T06:04:22;18.50;;;13.53;;
20441;SDS011;10380;52.102;20.614;2022-10-16T06:06:49;19.57;;;12.53;;
20441;SDS011;10380;52.102;20.614;2022-10-16T06:09:16;19.93;;;12.00;;
20441;SDS011;10380;52.102;20.614;2022-10-16T06:11:43;17.43;;;12.23;;
20441;SDS011;10380;52.102;20.614;2022-10-16T06:14:10;20.33;;;12.83;;
20441;SDS011;10380;52.102;20.614;2022-10-16T06:16:37;16.93;;;12.60;;
20441;SDS011;10380;52.102;20.614;2022-10-16T06:19:05;18.33;;;13.07;;
20441;SDS011;10380;52.102;20.614;2022-10-16T06:21:34;18.07;;;11.77;;
20441;SDS011;10380;52.102;20.614;2022-10-16T06:24:01;16.37;;;12.37;;
20441;SDS011;10380;52.102;20.614;2022-10-16T06:26:31;17.93;;;12.40;;
20441;SDS011;10380;52.102;20.614;2022-10-16T06:28:58;17.93;;;12.93;;
20441;SDS011;10380;52.102;20.614;2022-10-16T06:31:26;16.43;;;11.87;;
20441;SDS011;10380;52.102;20.614;2022-10-16T06:33:56;15.40;;;10.23;;
20441;SDS011;10380;52.102;20.614;2022-10-16T06:36:24;13.67;;;11.27;;
20441;SDS011;10380;52.102;20.614;2022-10-16T06:38:51;17.93;;;12.93;;
20441;SDS011;10380;52.102;20.614;2022-10-16T06:41:20;15.43;;;10.77;;
20441;SDS011;10380;52.102;20.614;2022-10-16T06:43:48;15.60;;;10.97;;
20441;SDS011;10380;52.102;20.614;2022-10-16T06:46:17;14.97;;;10.33;;
20441;SDS011;10380;52.102;20.614;2022-10-16T06:48:46;15.87;;;12.13;;
20441;SDS011;10380;52.102;20.614;2022-10-16T06:51:14;18.73;;;11.05;;
20441;SDS011;10380;52.102;20.614;2022-10-16T06:53:44;15.77;;;11.30;;
20441;SDS011;10380;52.102;20.614;2022-10-16T06:56:29;16.70;;;11.40;;
20441;SDS011;10380;52.102;20.614;2022-10-16T06:58:57;18.63;;;12.05;;
20441;SDS011;10380;52.102;20.614;2022-10-16T07:01:25;19.48;;;13.40;;
20441;SDS011;10380;52.102;20.614;2022-10-16T07:03:53;18.73;;;13.27;;
20441;SDS011;10380;52.102;20.614;2022-10-16T07:06:21;15.70;;;13.07;;
20441;SDS011;10380;52.102;20.614;2022-10-16T07:08:49;20.95;;;12.52;;
20441;SDS011;10380;52.102;20.614;2022-10-16T07:11:18;16.98;;;10.52;;
20441;SDS011;10380;52.102;20.614;2022-10-16T07:13:47;17.95;;;11.80;;
20441;SDS011;10380;52.102;20.614;2022-10-16T07:16:23;15.07;;;11.25;;
20441;SDS011;10380;52.102;20.614;2022-10-16T07:18:59;18.60;;;11.50;;
20441;SDS011;10380;52.102;20.614;2022-10-16T07:21:28;19.33;;;12.38;;
20441;SDS011;10380;52.102;20.614;2022-10-16T07:23:59;14.85;;;10.65;;
20441;SDS011;10380;52.102;20.614;2022-10-16T07:26:30;17.15;;;11.27;;
20441;SDS011;10380;52.102;20.614;2022-10-16T07:28:59;18.08;;;11.48;;
20441;SDS011;10380;52.102;20.614;2022-10-16T07:31:27;17.98;;;11.82;;
20441;SDS011;10380;52.102;20.614;2022-10-16T07:33:54;16.02;;;10.82;;
20441;SDS011;10380;52.102;20.614;2022-10-16T07:36:24;14.18;;;10.20;;
20441;SDS011;10380;52.102;20.614;2022-10-16T07:38:51;12.82;;;9.95;;
20441;SDS011;10380;52.102;20.614;2022-10-16T07:41:24;21.02;;;11.35;;
20441;SDS011;10380;52.102;20.614;2022-10-16T07:43:52;16.67;;;10.65;;
20441;SDS011;10380;52.102;20.614;2022-10-16T07:46:20;16.75;;;10.98;;
20441;SDS011;10380;52.102;20.614;2022-10-16T07:48:48;17.88;;;11.18;;
20441;SDS011;10380;52.102;20.614;2022-10-16T07:51:17;12.63;;;10.80;;
20441;SDS011;10380;52.102;20.614;2022-10-16T07:53:45;12.75;;;10.52;;
20441;SDS011;10380;52.102;20.614;2022-10-16T07:56:13;13.52;;;8.90;;
20441;SDS011;10380;52.102;20.614;2022-10-16T07:58:41;15.18;;;9.68;;
20441;SDS011;10380;52.102;20.614;2022-10-16T08:01:10;14.38;;;10.80;;
20441;SDS011;10380;52.102;20.614;2022-10-16T08:03:43;11.65;;;8.80;;
20441;SDS011;10380;52.102;20.614;2022-10-16T08:06:11;15.73;;;9.73;;
20441;SDS011;10380;52.102;20.614;2022-10-16T08:08:38;14.38;;;10.70;;
20441;SDS011;10380;52.102;20.614;2022-10-16T08:11:05;16.40;;;9.77;;
20441;SDS011;10380;52.102;20.614;2022-10-16T08:13:33;12.02;;;9.90;;
20441;SDS011;10380;52.102;20.614;2022-10-16T08:16:00;16.20;;;11.25;;
20441;SDS011;10380;52.102;20.614;2022-10-16T08:18:27;11.63;;;9.20;;
20441;SDS011;10380;52.102;20.614;2022-10-16T08:20:55;15.32;;;8.85;;
20441;SDS011;10380;52.102;20.614;2022-10-16T08:23:24;12.38;;;8.50;;
20441;SDS011;10380;52.102;20.614;2022-10-16T08:25:55;11.85;;;8.80;;
20441;SDS011;10380;52.102;20.614;2022-10-16T08:28:27;11.85;;;9.00;;
20441;SDS011;10380;52.102;20.614;2022-10-16T08:30:55;14.45;;;9.85;;
20441;SDS011;10380;52.102;20.614;2022-10-16T08:33:23;13.73;;;9.60;;
20441;SDS011;10380;52.102;20.614;2022-10-16T08:35:50;16.25;;;10.13;;
20441;SDS011;10380;52.102;20.614;2022-10-16T08:38:18;10.93;;;9.00;;
20441;SDS011;10380;52.102;20.614;2022-10-16T08:40:46;11.02;;;8.93;;
20441;SDS011;10380;52.102;20.614;2022-10-16T08:47:01;13.32;;;9.75;;
20441;SDS011;10380;52.102;20.614;2022-10-16T08:48:56;13.32;;;9.45;;
20441;SDS011;10380;52.102;20.614;2022-10-16T08:51:26;12.45;;;9.35;;
20441;SDS011;10380;52.102;20.614;2022-10-16T08:54:03;11.52;;;9.10;;
20441;SDS011;10380;52.102;20.614;2022-10-16T08:56:31;13.57;;;9.80;;
20441;SDS011;10380;52.102;20.614;2022-10-16T08:58:59;18.00;;;9.93;;
20441;SDS011;10380;52.102;20.614;2022-10-16T09:01:41;12.60;;;9.13;;
20441;SDS011;10380;52.102;20.614;2022-10-16T09:07:32;13.98;;;10.27;;
20441;SDS011;10380;52.102;20.614;2022-10-16T09:23:40;31.75;;;10.52;;
20441;SDS011;10380;52.102;20.614;2022-10-16T09:26:11;14.55;;;10.77;;
20441;SDS011;10380;52.102;20.614;2022-10-16T09:28:40;11.85;;;9.10;;
20441;SDS011;10380;52.102;20.614;2022-10-16T09:31:10;11.95;;;8.90;;
20441;SDS011;10380;52.102;20.614;2022-10-16T09:33:44;13.68;;;10.68;;
20441;SDS011;10380;52.102;20.614;2022-10-16T09:36:15;13.40;;;10.90;;
20441;SDS011;10380;52.102;20.614;2022-10-16T09:38:44;13.82;;;9.43;;
20441;SDS011;10380;52.102;20.614;2022-10-16T09:41:15;14.10;;;9.23;;
20441;SDS011;10380;52.102;20.614;2022-10-16T09:43:53;13.38;;;9.60;;
20441;SDS011;10380;52.102;20.614;2022-10-16T09:46:24;14.45;;;9.98;;
20441;SDS011;10380;52.102;20.614;2022-10-16T09:48:57;14.05;;;10.23;;
20441;SDS011;10380;52.102;20.614;2022-10-16T09:51:29;15.48;;;10.40;;
20441;SDS011;10380;52.102;20.614;2022-10-16T09:54:11;14.40;;;9.98;;
20441;SDS011;10380;52.102;20.614;2022-10-16T09:56:42;13.15;;;9.48;;
20441;SDS011;10380;52.102;20.614;2022-10-16T09:59:13;13.70;;;10.45;;
20441;SDS011;10380;52.102;20.614;2022-10-16T10:01:50;12.95;;;10.82;;
20441;SDS011;10380;52.102;20.614;2022-10-16T10:04:20;12.30;;;9.52;;
20441;SDS011;10380;52.102;20.614;2022-10-16T10:06:52;16.20;;;10.38;;
20441;SDS011;10380;52.102;20.614;2022-10-16T10:09:25;15.45;;;10.82;;
20441;SDS011;10380;52.102;20.614;2022-10-16T10:11:56;14.00;;;10.00;;
20441;SDS011;10380;52.102;20.614;2022-10-16T10:19:53;14.55;;;10.13;;
20441;SDS011;10380;52.102;20.614;2022-10-16T10:22:30;13.00;;;9.52;;
20441;SDS011;10380;52.102;20.614;2022-10-16T10:38:47;13.63;;;9.10;;
20441;SDS011;10380;52.102;20.614;2022-10-16T10:46:56;14.82;;;9.40;;
20441;SDS011;10380;52.102;20.614;2022-10-16T10:55:17;10.75;;;8.18;;
20441;SDS011;10380;52.102;20.614;2022-10-16T11:00:56;14.38;;;8.95;;
20441;SDS011;10380;52.102;20.614;2022-10-16T11:05:58;11.30;;;7.68;;
20441;SDS011;10380;52.102;20.614;2022-10-16T11:08:39;33.03;;;22.27;;
20441;SDS011;10380;52.102;20.614;2022-10-16T11:14:00;16.52;;;10.80;;
20441;SDS011;10380;52.102;20.614;2022-10-16T11:16:39;12.18;;;8.98;;
20441;SDS011;10380;52.102;20.614;2022-10-16T11:21:48;12.63;;;8.50;;
20441;SDS011;10380;52.102;20.614;2022-10-16T11:24:36;13.18;;;8.00;;
20441;SDS011;10380;52.102;20.614;2022-10-16T11:27:19;11.98;;;8.60;;
20441;SDS011;10380;52.102;20.614;2022-10-16T11:30:02;9.13;;;7.47;;
20441;SDS011;10380;52.102;20.614;2022-10-16T11:32:41;10.65;;;7.63;;
20441;SDS011;10380;52.102;20.614;2022-10-16T11:38:43;9.38;;;7.85;;
20441;SDS011;10380;52.102;20.614;2022-10-16T11:41:22;11.05;;;7.82;;
20441;SDS011;10380;52.102;20.614;2022-10-16T11:46:32;9.32;;;7.10;;
20441;SDS011;10380;52.102;20.614;2022-10-16T11:49:25;11.57;;;8.15;;
20441;SDS011;10380;52.102;20.614;2022-10-16T11:54:54;11.07;;;7.82;;
20441;SDS011;10380;52.102;20.614;2022-10-16T11:57:32;9.63;;;7.40;;
20441;SDS011;10380;52.102;20.614;2022-10-16T12:00:05;11.80;;;7.38;;
20441;SDS011;10380;52.102;20.614;2022-10-16T12:08:11;11.52;;;8.43;;
20441;SDS011;10380;52.102;20.614;2022-10-16T12:10:41;12.88;;;8.55;;
20441;SDS011;10380;52.102;20.614;2022-10-16T12:18:39;10.00;;;7.97;;
20441;SDS011;10380;52.102;20.614;2022-10-16T12:21:07;11.02;;;8.20;;
20441;SDS011;10380;52.102;20.614;2022-10-16T12:26:14;12.65;;;9.30;;
20441;SDS011;10380;52.102;20.614;2022-10-16T12:28:54;10.50;;;7.72;;
20441;SDS011;10380;52.102;20.614;2022-10-16T12:31:22;10.27;;;7.93;;
20441;SDS011;10380;52.102;20.614;2022-10-16T12:34:00;9.05;;;7.60;;
20441;SDS011;10380;52.102;20.614;2022-10-16T12:36:34;11.82;;;7.55;;
20441;SDS011;10380;52.102;20.614;2022-10-16T12:39:02;10.73;;;6.90;;
20441;SDS011;10380;52.102;20.614;2022-10-16T12:41:30;8.73;;;7.07;;
20441;SDS011;10380;52.102;20.614;2022-10-16T12:44:02;7.53;;;6.53;;
20441;SDS011;10380;52.102;20.614;2022-10-16T12:51:38;8.90;;;7.25;;
20441;SDS011;10380;52.102;20.614;2022-10-16T12:56:56;7.45;;;6.57;;
20441;SDS011;10380;52.102;20.614;2022-10-16T13:05:01;7.93;;;6.75;;
20441;SDS011;10380;52.102;20.614;2022-10-16T13:10:30;13.30;;;7.60;;
20441;SDS011;10380;52.102;20.614;2022-10-16T13:16:04;6.97;;;5.57;;
20441;SDS011;10380;52.102;20.614;2022-10-16T13:21:33;10.88;;;7.38;;
20441;SDS011;10380;52.102;20.614;2022-10-16T13:24:16;9.50;;;6.78;;
20441;SDS011;10380;52.102;20.614;2022-10-16T13:26:49;9.38;;;6.10;;
20441;SDS011;10380;52.102;20.614;2022-10-16T13:29:22;9.25;;;6.70;;
20441;SDS011;10380;52.102;20.614;2022-10-16T13:31:49;8.32;;;6.43;;
20441;SDS011;10380;52.102;20.614;2022-10-16T13:34:17;9.18;;;5.78;;
20441;SDS011;10380;52.102;20.614;2022-10-16T13:36:48;7.75;;;5.20;;
20441;SDS011;10380;52.102;20.614;2022-10-16T13:42:09;7.43;;;5.07;;
20441;SDS011;10380;52.102;20.614;2022-10-16T13:44:48;10.48;;;5.43;;
20441;SDS011;10380;52.102;20.614;2022-10-16T13:47:18;6.95;;;5.13;;
20441;SDS011;10380;52.102;20.614;2022-10-16T13:50:12;6.95;;;4.97;;
20441;SDS011;10380;52.102;20.614;2022-10-16T13:52:40;6.32;;;4.50;;
20441;SDS011;10380;52.102;20.614;2022-10-16T13:55:14;5.65;;;4.72;;
20441;SDS011;10380;52.102;20.614;2022-10-16T13:57:43;6.88;;;5.10;;
20441;SDS011;10380;52.102;20.614;2022-10-16T14:00:21;7.90;;;5.03;;
20441;SDS011;10380;52.102;20.614;2022-10-16T14:02:51;9.02;;;6.45;;
20441;SDS011;10380;52.102;20.614;2022-10-16T14:05:28;22.73;;;14.45;;
20441;SDS011;10380;52.102;20.614;2022-10-16T14:07:55;40.70;;;21.85;;
20441;SDS011;10380;52.102;20.614;2022-10-16T14:10:24;80.85;;;42.67;;
20441;SDS011;10380;52.102;20.614;2022-10-16T14:13:06;15.52;;;11.82;;
20441;SDS011;10380;52.102;20.614;2022-10-16T14:15:45;12.48;;;7.88;;
20441;SDS011;10380;52.102;20.614;2022-10-16T14:18:17;11.20;;;6.88;;
20441;SDS011;10380;52.102;20.614;2022-10-16T14:20:48;10.85;;;7.10;;
20441;SDS011;10380;52.102;20.614;2022-10-16T14:23:20;10.07;;;7.10;;
20441;SDS011;10380;52.102;20.614;2022-10-16T14:26:05;8.15;;;5.82;;
20441;SDS011;10380;52.102;20.614;2022-10-16T14:28:42;8.93;;;5.50;;
20441;SDS011;10380;52.102;20.614;2022-10-16T14:33:54;7.80;;;4.90;;
20441;SDS011;10380;52.102;20.614;2022-10-16T14:36:21;7.38;;;5.18;;
20441;SDS011;10380;52.102;20.614;2022-10-16T14:41:28;7.22;;;5.68;;
20441;SDS011;10380;52.102;20.614;2022-10-16T14:44:01;9.70;;;5.50;;
20441;SDS011;10380;52.102;20.614;2022-10-16T14:46:34;8.07;;;6.07;;
20441;SDS011;10380;52.102;20.614;2022-10-16T14:51:35;7.50;;;6.03;;
20441;SDS011;10380;52.102;20.614;2022-10-16T14:54:03;6.88;;;5.13;;
20441;SDS011;10380;52.102;20.614;2022-10-16T14:56:32;7.90;;;5.60;;
20441;SDS011;10380;52.102;20.614;2022-10-16T14:59:09;9.27;;;6.70;;
20441;SDS011;10380;52.102;20.614;2022-10-16T15:02:00;8.35;;;5.47;;
20441;SDS011;10380;52.102;20.614;2022-10-16T15:04:35;12.13;;;6.45;;
20441;SDS011;10380;52.102;20.614;2022-10-16T15:07:02;10.52;;;6.20;;
20441;SDS011;10380;52.102;20.614;2022-10-16T15:09:29;8.85;;;5.75;;
20441;SDS011;10380;52.102;20.614;2022-10-16T15:11:55;8.88;;;5.47;;
20441;SDS011;10380;52.102;20.614;2022-10-16T15:14:22;8.93;;;6.53;;
20441;SDS011;10380;52.102;20.614;2022-10-16T15:16:49;8.35;;;5.93;;
20441;SDS011;10380;52.102;20.614;2022-10-16T15:19:16;8.38;;;6.65;;
20441;SDS011;10380;52.102;20.614;2022-10-16T15:21:43;13.60;;;6.82;;
20441;SDS011;10380;52.102;20.614;2022-10-16T15:24:13;8.65;;;6.43;;
20441;SDS011;10380;52.102;20.614;2022-10-16T15:26:45;7.90;;;5.55;;
20441;SDS011;10380;52.102;20.614;2022-10-16T15:29:12;8.25;;;6.50;;
20441;SDS011;10380;52.102;20.614;2022-10-16T15:31:40;9.43;;;6.43;;
20441;SDS011;10380;52.102;20.614;2022-10-16T15:34:09;11.75;;;7.03;;
20441;SDS011;10380;52.102;20.614;2022-10-16T15:36:37;10.40;;;7.22;;
20441;SDS011;10380;52.102;20.614;2022-10-16T15:39:14;12.32;;;7.53;;
20441;SDS011;10380;52.102;20.614;2022-10-16T15:41:43;14.52;;;7.38;;
20441;SDS011;10380;52.102;20.614;2022-10-16T15:44:11;10.02;;;8.43;;
20441;SDS011;10380;52.102;20.614;2022-10-16T15:46:38;10.82;;;7.00;;
20441;SDS011;10380;52.102;20.614;2022-10-16T15:49:05;10.60;;;7.35;;
20441;SDS011;10380;52.102;20.614;2022-10-16T15:51:32;11.18;;;7.72;;
20441;SDS011;10380;52.102;20.614;2022-10-16T15:54:00;11.15;;;7.65;;
20441;SDS011;10380;52.102;20.614;2022-10-16T15:56:28;11.30;;;8.35;;
20441;SDS011;10380;52.102;20.614;2022-10-16T15:58:56;10.88;;;8.93;;
20441;SDS011;10380;52.102;20.614;2022-10-16T16:01:24;13.13;;;8.73;;
20441;SDS011;10380;52.102;20.614;2022-10-16T16:03:52;11.48;;;9.30;;
20441;SDS011;10380;52.102;20.614;2022-10-16T16:06:20;13.00;;;9.32;;
20441;SDS011;10380;52.102;20.614;2022-10-16T16:08:48;13.43;;;9.57;;
20441;SDS011;10380;52.102;20.614;2022-10-16T16:11:16;11.27;;;8.63;;
20441;SDS011;10380;52.102;20.614;2022-10-16T16:13:43;10.55;;;8.80;;
20441;SDS011;10380;52.102;20.614;2022-10-16T16:16:11;13.88;;;8.82;;
20441;SDS011;10380;52.102;20.614;2022-10-16T16:18:40;10.80;;;8.70;;
20441;SDS011;10380;52.102;20.614;2022-10-16T16:21:09;12.60;;;9.48;;
20441;SDS011;10380;52.102;20.614;2022-10-16T16:23:37;12.68;;;9.20;;
20441;SDS011;10380;52.102;20.614;2022-10-16T16:26:09;13.45;;;9.68;;
20441;SDS011;10380;52.102;20.614;2022-10-16T16:28:39;13.07;;;9.77;;
20441;SDS011;10380;52.102;20.614;2022-10-16T16:31:07;13.38;;;9.35;;
20441;SDS011;10380;52.102;20.614;2022-10-16T16:33:34;15.95;;;10.55;;
20441;SDS011;10380;52.102;20.614;2022-10-16T16:36:02;16.77;;;11.80;;
20441;SDS011;10380;52.102;20.614;2022-10-16T16:38:39;20.23;;;12.02;;
20441;SDS011;10380;52.102;20.614;2022-10-16T16:41:13;17.70;;;12.07;;
20441;SDS011;10380;52.102;20.614;2022-10-16T16:43:42;16.63;;;11.98;;
20441;SDS011;10380;52.102;20.614;2022-10-16T16:46:09;21.98;;;12.75;;
20441;SDS011;10380;52.102;20.614;2022-10-16T16:48:36;19.98;;;12.93;;
20441;SDS011;10380;52.102;20.614;2022-10-16T16:51:04;21.50;;;14.15;;